Time;durP1;ratioP1;P1;durP2;ratioP2;P2;SDS_P1;SDS_P2;PMS_P1;PMS_P2;Temp;Humidity;BMP_temperature;BMP_pressure;BME280_temperature;BME280_humidity;BME280_pressure;Samples;Min_cycle;Max_cycle;Signal;HPM_P1;HPM_P2
2022/01/23 10:15:33;;;;;;;7.27;5.07;;;;;;;2.06;83.51;99027.94;6359053;27;20552;-65
2022/01/23 10:18:35;;;;;;;6.47;5.40;;;;;;;1.92;84.64;99035.22;6306491;27;20355;-65
2022/01/23 10:21:40;;;;;;;7.40;5.13;;;;;;;1.90;84.30;99050.88;6314768;28;20229;-66
2022/01/23 10:29:46;;;;;;;8.67;6.43;;;;;;;1.82;84.85;99047.59;6334419;27;20221;-65
2022/01/23 10:33:08;;;;;;;9.43;6.77;;;;;;;1.75;84.86;99041.69;6305628;28;20226;-65
2022/01/23 10:47:50;;;;;;;7.47;5.17;;;;;;;1.91;84.30;99043.91;6298703;28;20222;-66
2022/01/23 10:51:14;;;;;;;7.93;5.53;;;;;;;1.89;84.68;99051.78;6297419;28;20234;-65
2022/01/23 14:43:13;;;;;;;11.10;7.57;;;;;;;1.64;85.22;99035.00;6217119;28;1368180;-63
2022/01/23 14:46:14;;;;;;;8.83;6.97;;;;;;;1.61;85.29;99027.25;6288293;28;20721;-64
2022/01/23 14:49:26;;;;;;;12.77;7.90;;;;;;;1.56;85.88;99027.38;6286435;28;20229;-64
2022/01/23 14:52:28;;;;;;;10.57;7.87;;;;;;;1.54;85.94;99033.50;6286541;28;20226;-64
2022/01/23 14:55:30;;;;;;;9.63;7.43;;;;;;;1.52;86.20;99043.09;6293566;28;20663;-66
2022/01/23 14:58:34;;;;;;;10.90;8.47;;;;;;;1.46;86.35;99034.53;6294918;28;20233;-64
2022/01/23 15:01:37;;;;;;;10.30;7.93;;;;;;;1.44;85.72;99040.66;6272821;28;20694;-64
2022/01/23 15:04:41;;;;;;;10.63;7.50;;;;;;;1.42;86.63;99048.50;6286209;28;20582;-64
2022/01/23 15:07:43;;;;;;;13.50;8.83;;;;;;;1.40;86.20;99044.19;6290820;28;20222;-64
2022/01/23 15:10:50;;;;;;;11.77;8.23;;;;;;;1.39;86.91;99048.59;6292443;28;20279;-64
2022/01/23 15:13:52;;;;;;;13.03;8.10;;;;;;;1.43;86.73;99049.34;6301499;28;20198;-64
2022/01/23 15:17:01;;;;;;;11.67;8.70;;;;;;;1.44;86.29;99051.91;6291143;28;20253;-64
2022/01/23 15:20:04;;;;;;;10.90;8.30;;;;;;;1.42;86.64;99058.03;6262655;28;20226;-64
2022/01/23 15:23:07;;;;;;;10.83;7.63;;;;;;;1.37;86.26;99047.75;6279141;28;20237;-64
2022/01/23 15:26:10;;;;;;;11.63;8.93;;;;;;;1.38;86.59;99062.47;6279227;28;20222;-64
2022/01/23 15:29:12;;;;;;;11.73;9.00;;;;;;;1.39;86.96;99073.72;6279755;28;20608;-64
2022/01/23 15:32:15;;;;;;;13.20;9.13;;;;;;;1.38;86.90;99067.66;6280171;28;20241;-62
2022/01/23 15:35:34;;;;;;;13.03;9.40;;;;;;;1.37;86.63;99065.09;6270397;28;20693;-64
2022/01/23 15:38:42;;;;;;;13.57;9.27;;;;;;;1.38;86.83;99056.41;6279261;28;20625;-65
2022/01/23 15:41:43;;;;;;;13.57;9.70;;;;;;;1.44;86.25;99061.47;6279295;28;20292;-64
2022/01/23 15:44:46;;;;;;;12.50;9.53;;;;;;;1.42;86.56;99063.25;6278685;28;20597;-64
2022/01/23 15:47:48;;;;;;;12.90;8.87;;;;;;;1.37;86.38;99068.56;6278722;28;20214;-65
2022/01/23 15:50:51;;;;;;;13.83;9.13;;;;;;;1.37;86.89;99067.69;6279109;28;20234;-64
2022/01/23 15:53:53;;;;;;;12.60;9.17;;;;;;;1.38;86.63;99065.06;6248119;28;20654;-64
2022/01/23 15:56:55;;;;;;;13.43;9.20;;;;;;;1.48;86.14;99058.78;6254442;28;20306;-64
2022/01/23 15:59:57;;;;;;;13.80;9.60;;;;;;;1.42;86.61;99068.44;6278699;28;20230;-64
2022/01/23 16:02:59;;;;;;;12.20;9.40;;;;;;;1.43;86.98;99064.94;6277587;28;20237;-65
2022/01/23 16:06:02;;;;;;;12.37;9.80;;;;;;;1.43;86.83;99068.41;6279292;28;20234;-64
2022/01/23 16:09:04;;;;;;;10.87;8.50;;;;;;;1.46;86.50;99076.16;6278375;28;20507;-64
2022/01/23 16:12:25;;;;;;;12.73;9.73;;;;;;;1.61;85.91;99072.34;6273443;28;20203;-64
2022/01/23 16:15:37;;;;;;;13.13;9.40;;;;;;;1.57;85.35;99080.28;6256322;28;20230;-65
2022/01/23 16:18:40;;;;;;;13.33;10.03;;;;;;;1.57;85.90;99083.72;6260224;28;20214;-65
2022/01/23 16:21:44;;;;;;;15.13;10.37;;;;;;;1.53;85.91;99087.28;6278553;28;20238;-65
2022/01/23 16:24:46;;;;;;;12.63;9.33;;;;;;;1.54;85.75;99080.34;6276925;28;20234;-65
2022/01/23 16:27:48;;;;;;;15.73;9.80;;;;;;;1.54;85.90;99083.78;6277072;28;20230;-65
2022/01/23 16:30:57;;;;;;;13.07;9.83;;;;;;;1.53;85.66;99081.22;6277895;28;20265;-65
2022/01/23 16:33:59;;;;;;;13.60;9.90;;;;;;;1.50;85.79;99086.50;6277664;28;20230;-65
2022/01/23 16:37:03;;;;;;;14.70;9.57;;;;;;;1.50;85.67;99086.50;6278397;28;20633;-65
2022/01/23 16:40:05;;;;;;;11.37;9.10;;;;;;;1.52;85.76;99095.97;6277657;28;20298;-65
2022/01/23 16:43:08;;;;;;;13.20;8.93;;;;;;;1.52;86.16;99105.50;6276534;28;20718;-65
2022/01/23 16:46:10;;;;;;;13.33;9.30;;;;;;;1.47;86.11;99103.03;6277873;28;20232;-65
2022/01/23 16:49:13;;;;;;;11.20;8.70;;;;;;;1.49;85.93;99103.84;6277301;28;20264;-65
2022/01/23 16:52:15;;;;;;;12.43;9.43;;;;;;;1.51;86.15;99103.81;6277236;28;20245;-65
2022/01/23 16:55:17;;;;;;;13.10;9.17;;;;;;;1.51;85.40;99109.88;6276367;28;20230;-64
2022/01/23 16:58:19;;;;;;;12.33;9.20;;;;;;;1.51;85.86;99115.06;6282206;28;20238;-65
2022/01/23 17:01:21;;;;;;;13.43;9.53;;;;;;;1.50;85.73;99117.72;6282464;28;20231;-65
2022/01/23 17:04:23;;;;;;;11.67;9.53;;;;;;;1.57;85.30;99117.56;6258916;28;20603;-65
2022/01/23 17:07:25;;;;;;;12.53;9.03;;;;;;;1.54;85.43;99120.22;6276797;28;20226;-64
2022/01/23 17:10:28;;;;;;;11.40;8.87;;;;;;;1.53;85.54;99112.44;6275656;28;20723;-65
2022/01/23 17:13:30;;;;;;;12.73;8.87;;;;;;;1.51;85.94;99116.81;6275913;28;20597;-65
2022/01/23 17:16:32;;;;;;;12.60;8.83;;;;;;;1.51;86.03;99122.88;6276654;28;20234;-64
2022/01/23 17:19:34;;;;;;;12.83;8.77;;;;;;;1.53;85.89;99122.84;6276849;28;20744;-65
2022/01/23 17:22:45;;;;;;;13.50;9.60;;;;;;;1.56;85.02;99130.59;6276205;28;20672;-65
2022/01/23 17:25:47;;;;;;;14.50;9.43;;;;;;;1.58;85.47;99131.41;6276366;28;20654;-65
2022/01/23 17:28:49;;;;;;;10.60;7.73;;;;;;;1.45;85.49;99139.47;6276400;28;20230;-65
2022/01/23 17:31:52;;;;;;;11.40;8.93;;;;;;;1.30;85.45;99141.53;6277290;28;20757;-65
2022/01/23 17:34:54;;;;;;;12.83;9.63;;;;;;;1.26;86.04;99145.94;6274884;28;20608;-65
2022/01/23 17:37:57;;;;;;;13.47;9.73;;;;;;;1.30;86.67;99136.34;6276561;28;20849;-65
2022/01/23 17:40:59;;;;;;;11.97;9.00;;;;;;;1.33;86.55;99133.66;6257665;28;20795;-65
2022/01/23 17:44:01;;;;;;;12.80;8.80;;;;;;;1.27;86.91;99146.78;6276657;28;20693;-65
2022/01/23 17:47:18;;;;;;;12.90;8.93;;;;;;;1.19;86.56;99151.28;6275657;28;20630;-65
2022/01/23 17:50:28;;;;;;;12.27;9.27;;;;;;;1.11;87.10;99154.88;6275662;28;20602;-65
2022/01/23 17:53:32;;;;;;;14.63;10.30;;;;;;;1.09;87.15;99150.59;6275539;28;20230;-68
2022/01/23 17:56:35;;;;;;;13.67;10.67;;;;;;;1.11;87.67;99143.59;6276122;28;20717;-66
2022/01/23 17:59:37;;;;;;;14.67;10.23;;;;;;;1.12;87.69;99155.72;6276279;28;20791;-65
2022/01/23 18:02:43;;;;;;;13.17;9.47;;;;;;;1.10;87.27;99160.09;6276185;28;20721;-65
2022/01/23 18:05:46;;;;;;;15.20;10.70;;;;;;;1.13;87.78;99152.25;6275996;28;20737;-65
2022/01/23 18:08:50;;;;;;;13.70;9.87;;;;;;;1.09;87.55;99150.59;6275972;28;20303;-65
2022/01/23 18:11:53;;;;;;;13.43;9.70;;;;;;;1.07;88.14;99140.22;6275536;28;20238;-65
2022/01/23 18:14:56;;;;;;;13.47;9.13;;;;;;;1.12;87.65;99140.13;6258419;28;20260;-65
2022/01/23 18:17:57;;;;;;;14.23;10.37;;;;;;;1.17;87.60;99133.13;6276428;28;20698;-65
2022/01/23 18:20:59;;;;;;;13.03;10.03;;;;;;;1.17;87.83;99130.50;6275628;28;20611;-65
2022/01/23 18:24:07;;;;;;;13.47;10.03;;;;;;;1.18;87.86;99136.56;6263864;28;20226;-65
2022/01/23 18:27:09;;;;;;;13.10;9.70;;;;;;;1.21;87.54;99147.75;6274846;28;20756;-65
2022/01/23 18:30:12;;;;;;;13.03;9.17;;;;;;;1.16;87.78;99144.41;6276223;28;20214;-65
2022/01/23 18:33:15;;;;;;;13.23;9.57;;;;;;;1.14;87.90;99147.91;6276102;28;20207;-65
2022/01/23 18:36:17;;;;;;;11.80;8.97;;;;;;;1.19;87.75;99144.34;6253868;28;20219;-65
2022/01/23 18:39:19;;;;;;;11.23;8.87;;;;;;;1.18;87.74;99153.03;6276395;28;20556;-65
2022/01/23 18:42:21;;;;;;;10.47;8.13;;;;;;;1.20;88.07;99151.22;6275128;28;20611;-65
2022/01/23 18:45:22;;;;;;;11.23;8.43;;;;;;;1.18;88.01;99158.22;6275598;28;20247;-65
2022/01/23 18:48:24;;;;;;;12.63;9.23;;;;;;;1.18;87.76;99150.44;6275167;28;20233;-65
2022/01/23 18:51:28;;;;;;;12.27;9.37;;;;;;;1.22;87.77;99153.81;6276768;28;20249;-65
2022/01/23 18:54:39;;;;;;;13.00;9.63;;;;;;;1.20;87.47;99156.44;6279860;28;20218;-65
2022/01/23 18:58:12;;;;;;;10.80;8.30;;;;;;;1.17;87.83;99163.44;6279857;28;20237;-65
2022/01/23 19:01:17;;;;;;;13.63;9.83;;;;;;;1.13;88.21;99151.38;6280928;28;20762;-65
2022/01/23 19:04:21;;;;;;;11.57;8.63;;;;;;;1.10;87.70;99165.28;6278734;28;20698;-66
2022/01/23 19:07:33;;;;;;;11.03;7.63;;;;;;;1.04;88.17;99158.47;6280075;28;20596;-65
2022/01/23 19:10:39;;;;;;;11.37;8.67;;;;;;;1.06;88.05;99164.50;6279601;28;20587;-65
2022/01/23 19:13:41;;;;;;;11.80;9.10;;;;;;;1.06;87.89;99153.25;6279825;28;20608;-66
2022/01/23 19:16:47;;;;;;;11.00;8.90;;;;;;;1.03;88.31;99153.28;6281447;28;20246;-65
2022/01/23 19:19:49;;;;;;;10.73;8.57;;;;;;;1.01;nan;99157.66;6279252;28;20231;-65
2022/01/23 19:22:52;;;;;;;11.30;8.87;;;;;;;0.98;88.08;99156.00;6279199;28;20234;-65
2022/01/23 19:25:55;;;;;;;10.87;8.17;;;;;;;0.99;88.32;99167.25;6278574;28;20237;-66
2022/01/23 19:28:58;;;;;;;10.30;7.97;;;;;;;0.98;88.44;99169.00;6279281;28;20647;-66
2022/01/23 19:32:00;;;;;;;11.27;8.30;;;;;;;0.98;87.66;99171.59;6279536;28;20724;-65
2022/01/23 19:35:05;;;;;;;11.57;8.37;;;;;;;0.97;88.38;99182.00;6278861;28;20218;-65
2022/01/23 19:38:14;;;;;;;11.07;8.60;;;;;;;0.97;88.02;99174.22;6279309;28;20242;-65
2022/01/23 19:41:26;;;;;;;10.67;8.20;;;;;;;0.99;88.54;99175.06;6279083;28;20292;-66
2022/01/23 19:44:36;;;;;;;11.63;8.60;;;;;;;0.98;88.34;99182.00;6278904;28;20234;-66
2022/01/23 19:47:44;;;;;;;10.40;8.27;;;;;;;0.95;87.97;99188.97;6279000;28;20238;-66
2022/01/23 19:50:46;;;;;;;9.30;7.60;;;;;;;0.93;88.55;99182.94;6278517;28;20226;-65
2022/01/23 19:53:48;;;;;;;8.87;6.90;;;;;;;0.95;88.19;99189.84;6260696;28;20694;-66
2022/01/23 19:56:50;;;;;;;10.53;8.10;;;;;;;1.00;88.19;99189.72;6278516;28;20375;-66
2022/01/23 19:59:52;;;;;;;10.37;7.77;;;;;;;1.02;88.37;99183.63;6278703;28;20785;-66
2022/01/23 20:02:54;;;;;;;9.47;7.07;;;;;;;0.99;88.27;99188.06;6276905;28;20219;-65
2022/01/23 20:05:56;;;;;;;11.27;8.23;;;;;;;0.92;88.35;99187.28;6278323;28;20610;-65
2022/01/23 20:09:07;;;;;;;10.57;8.53;;;;;;;0.92;88.15;99189.03;6278589;28;20636;-66
2022/01/23 20:15:31;;;;;;;9.00;7.33;;;;;;;0.90;89.13;99191.63;6278405;28;20226;-66
2022/01/23 20:18:33;;;;;;;9.10;7.50;;;;;;;0.96;89.12;99190.69;6277429;28;20649;-66
2022/01/23 20:21:36;;;;;;;9.40;7.77;;;;;;;0.91;89.10;99201.16;6278509;28;20721;-66
2022/01/23 20:24:42;;;;;;;9.27;7.37;;;;;;;0.90;88.96;99199.44;6278310;28;20607;-66
2022/01/23 20:27:46;;;;;;;9.40;7.70;;;;;;;0.89;89.05;99202.09;6278688;28;20241;-66
2022/01/23 20:30:48;;;;;;;9.90;7.70;;;;;;;0.89;88.77;99210.75;6277942;28;20723;-66
2022/01/23 20:33:51;;;;;;;9.37;7.90;;;;;;;0.85;89.58;99201.28;6277306;28;20307;-66
2022/01/23 20:36:59;;;;;;;10.50;8.13;;;;;;;0.83;88.83;99203.03;6278579;28;20238;-66
2022/01/23 20:40:01;;;;;;;11.17;8.87;;;;;;;0.84;89.26;99204.75;6277878;28;20261;-66
2022/01/23 20:43:03;;;;;;;11.03;8.97;;;;;;;0.86;89.54;99204.72;6278204;28;20241;-66
2022/01/23 20:46:05;;;;;;;11.03;8.27;;;;;;;0.95;89.59;99207.16;6260267;28;20695;-66
2022/01/23 20:49:08;;;;;;;12.57;9.03;;;;;;;0.92;89.62;99202.88;6278155;28;20609;-66
2022/01/23 20:55:35;;;;;;;10.70;8.23;;;;;;;0.93;89.27;99194.19;6237771;28;20249;-66
2022/01/23 20:58:40;;;;;;;9.60;7.93;;;;;;;0.97;89.96;99200.22;6276529;28;20252;-66
2022/01/23 21:01:42;;;;;;;12.13;8.63;;;;;;;0.96;89.52;99204.53;6277571;28;20628;-66
2022/01/23 21:04:44;;;;;;;10.30;8.33;;;;;;;1.04;89.58;99196.59;6277210;28;20221;-66
2022/01/23 21:07:46;;;;;;;11.20;9.10;;;;;;;1.04;89.18;99199.22;6277034;28;20685;-66
2022/01/23 21:10:50;;;;;;;11.53;8.30;;;;;;;1.09;88.99;99200.84;6253486;28;20607;-66
2022/01/23 21:20:14;;;;;;;10.10;7.37;;;;;;;1.11;88.49;99206.84;6277397;28;20230;-66
2022/01/23 21:28:31;;;;;;;7.40;6.37;;;;;;;1.11;89.02;99206.84;6277111;28;20226;-67
2022/01/23 21:40:05;;;;;;;7.57;6.50;;;;;;;1.05;88.66;99219.13;6258236;28;20237;-67
2022/01/23 21:43:07;;;;;;;10.80;7.73;;;;;;;1.00;88.78;99226.13;6258901;28;20230;-67
2022/01/23 21:46:09;;;;;;;10.37;7.13;;;;;;;0.93;88.92;99219.31;6276533;28;20237;-67
2022/01/23 21:49:13;;;;;;;8.53;7.17;;;;;;;0.90;89.34;99222.00;6277294;28;20235;-68
2022/01/23 21:52:16;;;;;;;8.90;7.27;;;;;;;0.93;89.45;99224.53;6275749;28;20717;-67
2022/01/23 21:55:18;;;;;;;9.77;6.73;;;;;;;0.98;88.88;99228.78;6276090;28;20709;-67
2022/01/23 21:58:20;;;;;;;9.40;6.77;;;;;;;0.93;88.94;99219.31;6275845;28;20709;-67
2022/01/23 22:01:22;;;;;;;9.00;7.70;;;;;;;0.95;89.32;99223.63;6275662;28;20740;-67
2022/01/23 22:04:25;;;;;;;9.83;7.80;;;;;;;0.93;89.27;99221.91;6276518;28;20233;-67
2022/01/23 22:07:27;;;;;;;9.27;7.87;;;;;;;0.93;89.55;99225.38;6275890;28;20542;-67
2022/01/23 22:10:34;;;;;;;10.53;7.40;;;;;;;0.96;89.86;99225.34;6275950;28;20771;-67
2022/01/23 22:17:11;;;;;;;10.90;8.90;;;;;;;0.83;88.99;99233.34;6279402;28;20219;-67
2022/01/23 22:20:34;;;;;;;10.83;7.87;;;;;;;0.81;89.47;99216.94;6275246;28;20230;-68
2022/01/23 22:26:50;;;;;;;9.33;7.50;;;;;;;0.72;89.36;99213.59;6252912;28;20256;-67
2022/01/23 22:29:52;;;;;;;10.67;7.53;;;;;;;0.71;89.69;99209.28;6279571;28;20710;-67
2022/01/23 22:32:54;;;;;;;11.73;8.40;;;;;;;0.74;89.30;99208.38;6280161;28;20810;-67
2022/01/23 22:35:59;;;;;;;11.30;8.77;;;;;;;0.76;89.74;99222.22;6281162;28;20244;-67
2022/01/23 22:39:04;;;;;;;11.23;8.93;;;;;;;0.80;89.47;99217.84;6262974;28;20693;-67
2022/01/23 22:42:06;;;;;;;12.63;8.80;;;;;;;0.78;89.85;99211.81;6279239;28;20242;-67
2022/01/23 22:45:14;;;;;;;11.77;9.67;;;;;;;0.78;89.80;99209.19;6280509;28;20287;-67
2022/01/23 22:48:16;;;;;;;12.93;9.73;;;;;;;0.78;89.79;99207.47;6262392;28;20238;-67
2022/01/23 22:51:18;;;;;;;12.73;9.60;;;;;;;0.81;89.83;99215.19;6280709;28;20640;-67
2022/01/23 22:54:21;;;;;;;12.10;9.40;;;;;;;0.85;89.93;99211.66;6280181;28;20511;-67
2022/01/23 22:57:23;;;;;;;15.53;10.77;;;;;;;0.93;89.58;99216.72;6280193;28;20222;-67
2022/01/23 23:00:59;;;;;;;13.50;10.60;;;;;;;0.99;89.76;99217.50;6279732;28;20271;-67
2022/01/23 23:04:02;;;;;;;15.00;11.33;;;;;;;0.96;90.18;99221.88;6202733;28;20285;-67
2022/01/23 23:07:04;;;;;;;13.00;10.23;;;;;;;0.95;89.39;99223.63;6202529;28;20339;-67
2022/01/23 23:10:09;;;;;;;14.23;9.90;;;;;;;0.95;89.49;99220.16;6186883;28;20232;-67
2022/01/23 23:13:17;;;;;;;15.40;10.07;;;;;;;0.97;90.02;99228.78;6185673;28;20233;-67
2022/01/23 23:16:34;;;;;;;16.40;11.57;;;;;;;1.01;89.56;99220.91;6203432;28;20258;-67
2022/01/23 23:19:47;;;;;;;12.67;9.67;;;;;;;1.03;88.82;99221.75;6203234;28;20509;-67
2022/01/23 23:22:49;;;;;;;14.93;10.57;;;;;;;0.97;89.25;99228.78;6202766;28;20232;-67
2022/01/23 23:25:51;;;;;;;14.00;10.60;;;;;;;0.93;89.53;99224.53;6202571;28;20228;-67
2022/01/23 23:28:53;;;;;;;13.17;10.47;;;;;;;0.90;89.20;99233.22;6202482;28;20244;-68
2022/01/23 23:31:56;;;;;;;15.67;11.03;;;;;;;0.90;89.51;99232.41;6202894;28;20786;-67
2022/01/23 23:34:58;;;;;;;16.20;11.50;;;;;;;0.90;89.42;99240.19;6245609;28;20609;-67
2022/01/23 23:38:00;;;;;;;14.83;10.87;;;;;;;0.90;89.56;99228.03;6278990;28;20234;-67
2022/01/23 23:41:29;;;;;;;14.77;11.30;;;;;;;0.97;89.32;99239.19;6278173;28;20253;-67
2022/01/23 23:44:31;;;;;;;15.27;11.60;;;;;;;0.99;89.48;99238.28;6264627;28;20722;-68
2022/01/23 23:47:35;;;;;;;12.57;10.17;;;;;;;0.96;89.22;99235.72;6278438;28;20722;-67
2022/01/23 23:50:37;;;;;;;13.00;10.37;;;;;;;0.91;89.11;99229.75;6278555;28;20227;-67
2022/01/23 23:53:39;;;;;;;14.80;10.47;;;;;;;0.85;89.11;99234.19;6274532;28;20729;-67
2022/01/23 23:56:49;;;;;;;13.83;10.73;;;;;;;0.81;89.25;99230.78;6278831;28;20656;-67
2022/01/23 23:59:51;;;;;;;16.20;11.80;;;;;;;0.88;89.24;99216.81;6279398;28;20230;-67
